Cankton, Louisiana
Current Conditions -  °F | °C
As of 3:15 PM on Tuesday 21 Oct 2014 (Local Time) from KOPL Reporting Station
Clear Clear  
Wind Chill: 79°   Ceiling: Unl
Heat Index: 80°   Visibility: 10mi
Dew Point: 56°   Wind: 5mph
Humidity: 46%   Direction: 40°NE
Pressure: 30"   Gusts: NA
Location:  30.3753°N, 92.0944°W
Report Text: KOPL 212015Z AUTO 04004KT 10SM CLR 26/14 A3000 RMK AO2 T02610136
Loading
Personal Weather Stations






























Interactive Weather Map
Tropical Storm Tracking
New forecast layout! Learn more

10-Day Weather Forecast

Advertisements
Track Severe Weather on mobile